Terminal Aerodrome Forecast
Issued by NWS Charleston, WV

Current Version | Previous Version | Graphics & Text | Print | Product List | Glossary On
Versions: 1 2 3 4 5 6 7 8 9 10 11 12 13 14 15 16 17 18 19 20 21
000
FTUS41 KRLX 011700 RRA
TAFHTS
TAF
KHTS 011749Z 0118/0218 18006KT 3SM -RA BR OVC025
     FM020300 VRB03KT 5SM BR OVC010
     FM020700 27005KT 6SM -RA BR OVC015
     FM020800 28005KT P6SM BKN015
     FM021400 30004KT P6SM BKN025=

USA.gov is the U.S. government's official web portal to all federal, state and local government web resources and services.